Time;durP1;ratioP1;P1;durP2;ratioP2;P2;SDS_P1;SDS_P2;PMS_P1;PMS_P2;Temp;Humidity;BMP_temperature;BMP_pressure;BME280_temperature;BME280_humidity;BME280_pressure;Samples;Min_cycle;Max_cycle;Signal;HPM_P1;HPM_P2
2023/04/08 00:00:06;;;;;;;5.20;4.10;;;;;;;1.60;84.52;99347.42;105816;1254;75810;-24
2023/04/08 00:02:38;;;;;;;5.30;3.20;;;;;;;1.41;85.02;99345.58;105680;1259;74126;-24
2023/04/08 00:05:07;;;;;;;7.80;4.90;;;;;;;1.89;85.45;99347.29;105797;1254;61068;-24
2023/04/08 00:07:36;;;;;;;6.20;4.10;;;;;;;2.47;84.01;99343.67;105670;1254;61215;-24
2023/04/08 00:10:05;;;;;;;4.80;4.30;;;;;;;2.47;82.59;99340.42;105676;1254;75378;-25
2023/04/08 00:12:34;;;;;;;3.00;2.70;;;;;;;2.21;82.52;99343.40;105682;1254;75654;-24
2023/04/08 00:15:03;;;;;;;5.80;4.70;;;;;;;1.91;82.91;99338.65;105659;1259;74474;-24
2023/04/08 00:17:32;;;;;;;10.20;5.50;;;;;;;1.61;83.52;99342.94;105727;1259;61265;-24
2023/04/08 00:20:01;;;;;;;7.50;5.20;;;;;;;1.32;83.94;99339.42;105829;1258;62045;-24
2023/04/08 00:22:30;;;;;;;5.60;2.60;;;;;;;1.12;84.40;99336.61;105842;1257;75125;-24
2023/04/08 00:24:58;;;;;;;6.30;3.90;;;;;;;1.50;84.49;99331.02;105818;1254;75640;-24
2023/04/08 00:27:38;;;;;;;8.40;5.40;;;;;;;2.09;83.64;99335.88;105794;1254;74149;-24
2023/04/08 00:30:08;;;;;;;8.20;5.50;;;;;;;2.16;83.03;99341.22;105819;1254;61628;-24
2023/04/08 00:32:37;;;;;;;6.70;4.90;;;;;;;2.01;83.22;99338.07;105598;1254;61074;-24
2023/04/08 00:35:06;;;;;;;8.90;5.00;;;;;;;1.80;83.47;99340.81;105553;1254;75291;-24
2023/04/08 00:37:35;;;;;;;7.90;5.40;;;;;;;1.57;83.81;99336.06;105520;1259;75839;-24
2023/04/08 00:40:10;;;;;;;9.20;5.50;;;;;;;1.34;84.20;99331.50;105557;1254;73230;-24
2023/04/08 00:42:39;;;;;;;7.10;3.50;;;;;;;1.17;84.81;99330.59;105891;1256;61746;-24
2023/04/08 00:45:09;;;;;;;7.20;4.60;;;;;;;1.64;84.93;99332.20;105835;1256;61815;-24
2023/04/08 00:47:38;;;;;;;6.00;4.40;;;;;;;2.21;83.18;99337.06;105735;1255;74381;-24
2023/04/08 00:50:10;;;;;;;7.30;5.60;;;;;;;2.24;82.53;99337.13;105909;1256;75977;-24
2023/04/08 00:52:39;;;;;;;7.50;5.00;;;;;;;2.09;82.52;99338.63;105699;1260;73920;-24
2023/04/08 00:55:09;;;;;;;8.70;5.30;;;;;;;1.86;82.71;99334.04;105739;1254;61154;-24
2023/04/08 00:57:37;;;;;;;6.90;5.40;;;;;;;1.63;82.94;99334.45;105657;1259;61844;-29
2023/04/08 01:00:08;;;;;;;7.50;5.30;;;;;;;1.38;82.95;99332.36;105548;1254;75192;-24
2023/04/08 01:02:46;;;;;;;5.10;3.20;;;;;;;1.10;83.30;99335.66;105646;1259;75917;-24
2023/04/08 01:05:37;;;;;;;6.50;4.50;;;;;;;1.51;83.78;99337.16;105609;1261;74064;-24
2023/04/08 01:08:06;;;;;;;8.20;5.50;;;;;;;2.14;82.75;99336.02;105623;1254;61699;-24
2023/04/08 01:10:37;;;;;;;6.70;4.80;;;;;;;2.08;81.79;99343.25;105703;1259;61749;-24
2023/04/08 01:13:08;;;;;;;7.60;5.30;;;;;;;1.94;82.45;99347.08;105865;1257;75257;-23
2023/04/08 01:15:39;;;;;;;22.70;16.50;;;;;;;1.60;84.18;99342.79;105700;1254;75692;-24
2023/04/08 01:18:11;;;;;;;15.50;8.60;;;;;;;1.42;84.70;99341.95;105513;1254;73259;-23
2023/04/08 01:20:41;;;;;;;8.40;5.90;;;;;;;1.21;84.14;99338.98;105378;1254;61150;-23
2023/04/08 01:23:35;;;;;;;6.20;3.80;;;;;;;1.04;84.44;99342.70;105387;1259;62000;-24
2023/04/08 01:26:03;;;;;;;6.20;4.50;;;;;;;1.63;84.86;99345.25;105545;1255;74354;-24
2023/04/08 01:28:32;;;;;;;6.60;4.70;;;;;;;2.18;83.63;99352.96;105943;1256;75803;-24
2023/04/08 01:31:01;;;;;;;5.50;3.90;;;;;;;2.28;83.23;99354.41;105638;1254;73953;-24
2023/04/08 01:33:29;;;;;;;7.00;4.50;;;;;;;2.22;83.19;99349.72;105583;1259;61100;-24
2023/04/08 01:36:01;;;;;;;6.60;4.90;;;;;;;2.02;83.12;99353.09;105503;1254;62133;-24
2023/04/08 01:38:30;;;;;;;6.80;5.40;;;;;;;1.83;83.40;99351.28;105589;1254;75220;-24
2023/04/08 01:40:59;;;;;;;7.10;4.40;;;;;;;1.67;83.78;99351.41;105604;1254;75844;-24
2023/04/08 01:43:31;;;;;;;6.20;3.50;;;;;;;1.58;84.25;99349.88;105640;1253;74046;-24
2023/04/08 01:46:00;;;;;;;6.60;4.00;;;;;;;2.14;84.58;99349.85;105635;1259;61064;-24
2023/04/08 01:48:28;;;;;;;7.80;4.70;;;;;;;2.80;83.01;99348.58;105420;1259;61596;-23
2023/04/08 01:50:57;;;;;;;6.00;4.50;;;;;;;2.90;81.85;99346.79;105414;1259;75686;-24
2023/04/08 01:53:26;;;;;;;6.30;4.30;;;;;;;2.69;81.52;99342.71;105354;1254;75585;-24
2023/04/08 01:55:57;;;;;;;7.20;5.20;;;;;;;2.45;81.99;99343.23;105591;1254;74054;-24
2023/04/08 01:58:25;;;;;;;6.70;5.10;;;;;;;2.22;82.24;99343.23;105283;1262;61400;-24
2023/04/08 02:00:54;;;;;;;8.10;5.50;;;;;;;1.98;82.47;99338.38;105546;1259;61606;-24
2023/04/08 02:03:24;;;;;;;4.30;3.10;;;;;;;1.76;83.06;99333.08;105519;1254;75976;-24
2023/04/08 02:05:53;;;;;;;7.40;4.50;;;;;;;2.12;83.39;99334.88;105547;1254;75849;-24
2023/04/08 02:08:21;;;;;;;7.30;5.30;;;;;;;2.62;82.05;99334.46;105498;1254;73754;-24
2023/04/08 02:10:51;;;;;;;8.90;5.00;;;;;;;2.66;81.19;99332.58;105505;1254;61385;-24
2023/04/08 02:13:20;;;;;;;7.60;5.60;;;;;;;2.48;81.55;99335.91;105537;1254;61221;-24
2023/04/08 02:15:56;;;;;;;8.70;5.80;;;;;;;2.20;81.92;99336.95;105684;1254;75287;-24
2023/04/08 02:18:27;;;;;;;6.70;5.20;;;;;;;1.97;82.66;99334.80;105692;1254;74969;-24
2023/04/08 02:20:58;;;;;;;8.00;5.80;;;;;;;1.81;83.21;99337.86;105774;1254;73817;-25
2023/04/08 02:23:32;;;;;;;4.20;3.10;;;;;;;1.71;83.73;99334.85;105569;1254;62576;-24
2023/04/08 02:26:00;;;;;;;8.10;5.30;;;;;;;2.23;83.67;99339.69;105887;1254;61885;-25
2023/04/08 02:28:30;;;;;;;8.50;5.40;;;;;;;2.90;82.39;99336.13;105678;1254;75104;-24
2023/04/08 02:31:04;;;;;;;8.30;5.70;;;;;;;3.02;81.37;99338.71;105702;1254;75773;-24
2023/04/08 02:33:35;;;;;;;9.00;5.40;;;;;;;2.86;81.17;99337.89;105559;1254;74133;-24
2023/04/08 02:36:05;;;;;;;8.50;6.10;;;;;;;2.63;81.44;99337.35;105309;1262;61196;-24
2023/04/08 02:38:39;;;;;;;8.50;5.80;;;;;;;2.40;82.06;99336.26;105616;1254;61840;-24
2023/04/08 02:41:08;;;;;;;7.60;5.80;;;;;;;2.18;82.64;99338.72;105553;1254;73292;-24
2023/04/08 02:43:37;;;;;;;5.50;3.30;;;;;;;1.99;83.46;99337.44;105612;1254;74733;-24
2023/04/08 02:46:09;;;;;;;9.10;5.30;;;;;;;2.43;83.76;99338.00;105769;1254;74181;-24
2023/04/08 02:48:38;;;;;;;8.00;5.00;;;;;;;3.03;82.62;99338.13;105655;1259;61191;-24
2023/04/08 02:51:07;;;;;;;7.10;4.60;;;;;;;3.12;81.73;99340.64;105684;1254;60992;-24
2023/04/08 02:53:38;;;;;;;5.50;4.30;;;;;;;2.96;81.58;99340.54;105797;1259;75211;-24
2023/04/08 02:56:10;;;;;;;8.20;5.30;;;;;;;2.74;81.88;99339.91;105666;1254;75626;-24
2023/04/08 02:58:38;;;;;;;9.80;5.80;;;;;;;2.50;82.34;99341.49;105534;1254;73947;-25
2023/04/08 03:01:08;;;;;;;7.00;5.70;;;;;;;2.24;83.00;99340.89;105851;1254;60962;-24
2023/04/08 03:03:39;;;;;;;5.80;3.90;;;;;;;2.02;83.84;99338.88;105599;1258;61799;-24
2023/04/08 03:06:08;;;;;;;7.30;4.30;;;;;;;2.33;83.50;99337.75;105611;1257;75318;-24
2023/04/08 03:08:36;;;;;;;6.30;4.90;;;;;;;2.82;82.08;99333.93;105478;1259;75847;-24
2023/04/08 03:11:06;;;;;;;8.30;5.80;;;;;;;2.88;81.75;99334.68;105503;1254;73900;-24
2023/04/08 03:13:35;;;;;;;11.60;6.20;;;;;;;2.71;82.24;99333.53;105574;1254;61693;-25
2023/04/08 03:16:10;;;;;;;9.50;6.70;;;;;;;2.51;83.44;99336.33;105489;1259;61090;-24
2023/04/08 03:18:39;;;;;;;9.90;7.60;;;;;;;2.36;85.51;99335.60;105565;1254;75530;-24
2023/04/08 03:21:08;;;;;;;8.40;5.20;;;;;;;2.27;86.42;99334.42;105769;1254;75922;-24
2023/04/08 03:23:36;;;;;;;14.90;8.40;;;;;;;2.79;86.66;99334.20;105838;1254;74137;-23
2023/04/08 03:26:05;;;;;;;11.30;8.50;;;;;;;3.47;85.29;99335.75;105830;1256;61668;-24
2023/04/08 03:28:34;;;;;;;9.40;6.20;;;;;;;3.67;84.11;99332.42;105721;1260;61794;-24
2023/04/08 03:31:03;;;;;;;9.50;7.00;;;;;;;3.62;83.81;99332.48;105893;1254;75335;-24
2023/04/08 03:33:32;;;;;;;12.20;7.60;;;;;;;3.44;83.67;99333.14;105646;1254;75256;-24
2023/04/08 03:36:01;;;;;;;13.20;7.30;;;;;;;3.23;83.87;99331.23;105531;1254;74080;-24
2023/04/08 03:38:30;;;;;;;10.40;8.00;;;;;;;3.03;84.37;99337.63;105557;1254;61161;-24
2023/04/08 03:40:58;;;;;;;8.90;5.30;;;;;;;2.88;84.91;99337.29;105526;1256;61157;-24
2023/04/08 03:43:27;;;;;;;8.20;5.40;;;;;;;3.35;85.02;99338.90;105503;1254;75306;-24
2023/04/08 03:45:55;;;;;;;8.90;6.60;;;;;;;3.92;83.39;99338.58;105584;1254;75829;-24
2023/04/08 03:48:25;;;;;;;7.30;5.20;;;;;;;4.01;82.35;99338.86;105693;1253;74212;-24
2023/04/08 03:50:54;;;;;;;8.10;5.80;;;;;;;3.85;82.16;99337.56;105676;1254;61650;-24
2023/04/08 03:53:23;;;;;;;9.80;7.00;;;;;;;3.64;82.22;99337.34;105596;1259;61872;-24
2023/04/08 03:55:51;;;;;;;11.10;7.70;;;;;;;3.42;82.64;99340.29;105739;1253;74575;-24
2023/04/08 03:58:20;;;;;;;11.60;8.50;;;;;;;3.17;83.51;99337.48;105699;1254;74799;-24
2023/04/08 04:00:48;;;;;;;8.30;5.50;;;;;;;3.01;84.38;99339.63;105817;1259;74293;-24
2023/04/08 04:03:18;;;;;;;12.70;6.90;;;;;;;3.52;84.54;99341.54;105719;1260;62182;-24
2023/04/08 04:05:52;;;;;;;11.30;7.80;;;;;;;4.14;82.53;99344.36;105691;1259;61646;-24
2023/04/08 04:08:21;;;;;;;9.60;6.50;;;;;;;4.25;81.82;99345.20;105860;1253;75170;-24
2023/04/08 04:10:51;;;;;;;11.40;8.00;;;;;;;4.13;81.63;99344.27;105797;1254;75722;-24
2023/04/08 04:13:20;;;;;;;12.70;9.10;;;;;;;3.86;81.81;99342.48;105763;1254;74483;-24
2023/04/08 04:15:50;;;;;;;15.90;10.10;;;;;;;3.51;83.14;99343.28;105576;1259;61198;-24
2023/04/08 04:18:19;;;;;;;11.70;8.20;;;;;;;3.23;84.73;99346.84;105625;1257;61902;-24
2023/04/08 04:20:47;;;;;;;11.60;6.90;;;;;;;3.08;85.79;99354.72;105833;1254;75579;-24
2023/04/08 04:23:18;;;;;;;10.10;6.50;;;;;;;3.64;85.49;99355.70;105844;1254;75577;-24
2023/04/08 04:25:47;;;;;;;12.90;8.50;;;;;;;4.30;83.52;99353.20;105789;1254;74197;-23
2023/04/08 04:28:22;;;;;;;12.90;8.30;;;;;;;4.48;82.29;99360.20;105613;1254;61677;-24
2023/04/08 04:30:52;;;;;;;16.90;10.00;;;;;;;4.40;81.52;99358.58;105782;1259;61250;-24
2023/04/08 04:33:27;;;;;;;15.50;10.80;;;;;;;4.24;81.38;99356.95;105674;1254;75591;-24
2023/04/08 04:35:56;;;;;;;14.20;9.60;;;;;;;4.08;81.69;99357.41;105875;1254;75661;-24
2023/04/08 04:38:25;;;;;;;17.10;11.70;;;;;;;3.96;81.96;99360.20;105715;1254;74337;-23
2023/04/08 04:40:55;;;;;;;15.30;8.50;;;;;;;3.90;82.34;99364.29;105810;1254;62604;-24
2023/04/08 04:43:23;;;;;;;21.30;12.60;;;;;;;4.47;82.14;99369.38;105579;1256;61945;-23
2023/04/08 04:45:52;;;;;;;21.40;13.80;;;;;;;5.11;80.30;99367.95;105612;1254;75373;-23
2023/04/08 04:48:22;;;;;;;16.10;10.20;;;;;;;5.23;79.40;99367.31;105908;1254;75554;-24
2023/04/08 04:50:58;;;;;;;16.50;10.50;;;;;;;5.09;78.94;99369.23;105868;1254;73208;-24
2023/04/08 04:53:30;;;;;;;15.40;10.20;;;;;;;4.88;79.50;99369.84;105664;1254;61715;-24
2023/04/08 04:56:00;;;;;;;14.20;9.30;;;;;;;4.70;80.12;99372.70;105564;1256;61675;-24
2023/04/08 04:58:32;;;;;;;13.90;9.80;;;;;;;4.50;80.79;99378.35;105644;1254;75526;-24
2023/04/08 05:01:01;;;;;;;10.70;6.70;;;;;;;4.36;81.29;99379.40;105822;1254;75581;-25
2023/04/08 05:03:31;;;;;;;11.60;7.20;;;;;;;4.79;81.43;99374.27;105869;1256;74198;-25
2023/04/08 05:13:46;;;;;;;15.40;10.30;;;;;;;5.11;79.13;99376.73;102612;1294;600683;-26
2023/04/08 05:16:17;;;;;;;15.50;10.60;;;;;;;4.86;79.78;99378.71;104762;1267;61858;-24
2023/04/08 05:18:46;;;;;;;14.50;10.20;;;;;;;4.68;80.93;99379.85;104859;1267;61867;-26
2023/04/08 05:21:22;;;;;;;11.00;7.40;;;;;;;4.59;82.06;99380.64;104766;1269;73714;-24
2023/04/08 05:23:52;;;;;;;11.30;7.10;;;;;;;5.21;82.00;99380.64;104828;1267;74866;-23
2023/04/08 05:26:22;;;;;;;12.00;7.90;;;;;;;5.94;79.86;99385.98;103344;1267;2096409;-24
2023/04/08 05:28:59;;;;;;;13.00;8.30;;;;;;;6.14;78.06;99384.02;104767;1266;61926;-24
2023/04/08 05:31:27;;;;;;;11.80;8.20;;;;;;;6.08;77.68;99388.13;104891;1267;61083;-24
2023/04/08 05:33:56;;;;;;;10.40;8.10;;;;;;;5.99;77.60;99386.92;104962;1269;73639;-24
2023/04/08 05:36:26;;;;;;;11.20;7.70;;;;;;;5.87;77.44;99388.81;105088;1266;75832;-24
2023/04/08 05:38:54;;;;;;;14.20;7.80;;;;;;;5.75;78.01;99395.48;105067;1266;73294;-23
2023/04/08 05:41:23;;;;;;;9.40;7.90;;;;;;;5.57;78.89;99401.43;105094;1265;61101;-24
2023/04/08 05:43:52;;;;;;;7.50;5.40;;;;;;;5.47;79.73;99404.73;104865;1270;61507;-24
2023/04/08 05:46:21;;;;;;;8.10;5.10;;;;;;;6.03;80.13;99398.59;104912;1270;74488;-23
2023/04/08 05:48:49;;;;;;;9.60;6.60;;;;;;;6.67;77.96;99397.30;104815;1266;75842;-24
2023/04/08 05:51:19;;;;;;;10.60;7.30;;;;;;;6.76;76.43;99393.34;105061;1265;74212;-23
2023/04/08 05:53:47;;;;;;;10.70;8.20;;;;;;;6.63;76.22;99399.61;105561;1258;62027;-24
2023/04/08 05:56:16;;;;;;;11.90;7.90;;;;;;;6.39;76.37;99398.96;105431;1262;61600;-24
2023/04/08 05:58:45;;;;;;;10.40;7.90;;;;;;;6.12;76.86;99394.14;105539;1258;74431;-24
2023/04/08 06:01:14;;;;;;;13.80;8.40;;;;;;;5.86;77.66;99397.09;105370;1262;75734;-23
2023/04/08 06:03:44;;;;;;;10.30;7.90;;;;;;;5.70;78.72;99398.34;105606;1257;75076;-23
2023/04/08 06:06:13;;;;;;;9.70;6.50;;;;;;;5.59;79.35;99399.83;105564;1257;62794;-24
2023/04/08 06:08:42;;;;;;;8.10;4.90;;;;;;;6.04;78.98;99394.55;105497;1257;61187;-24
2023/04/08 06:11:14;;;;;;;10.50;7.40;;;;;;;6.55;77.29;99396.81;105588;1257;74534;-24
2023/04/08 06:13:44;;;;;;;7.50;5.20;;;;;;;6.46;75.66;99396.45;105583;1260;75648;-24
2023/04/08 06:16:14;;;;;;;9.30;7.50;;;;;;;6.42;76.56;99404.46;105575;1258;74219;-24
2023/04/08 06:18:47;;;;;;;10.60;7.30;;;;;;;6.33;76.35;99406.88;105189;1259;61791;-24
2023/04/08 06:21:16;;;;;;;10.50;7.40;;;;;;;6.22;76.27;99409.60;105275;1257;61841;-24
2023/04/08 06:23:45;;;;;;;10.00;6.80;;;;;;;6.11;76.67;99407.30;105542;1257;74302;-24
2023/04/08 06:26:15;;;;;;;7.10;4.70;;;;;;;5.92;77.39;99404.19;105550;1258;76010;-24
2023/04/08 06:28:43;;;;;;;7.20;5.30;;;;;;;6.19;77.89;99402.37;105439;1257;73977;-24
2023/04/08 06:31:14;;;;;;;9.30;5.90;;;;;;;6.57;76.54;99397.73;105101;1260;61686;-24
2023/04/08 06:33:46;;;;;;;10.80;8.00;;;;;;;6.40;76.85;99396.61;105374;1259;61856;-24
2023/04/08 06:36:15;;;;;;;12.90;8.60;;;;;;;6.36;76.77;99397.90;105344;1258;74541;-24
2023/04/08 06:38:44;;;;;;;12.70;8.80;;;;;;;6.47;76.64;99404.19;105243;1258;74932;-24
2023/04/08 06:41:13;;;;;;;10.20;7.70;;;;;;;6.57;76.59;99409.66;105592;1258;73056;-23
2023/04/08 06:43:42;;;;;;;10.10;7.50;;;;;;;6.57;76.77;99413.09;105527;1257;61654;-24
2023/04/08 06:46:10;;;;;;;11.60;7.80;;;;;;;6.63;76.40;99414.10;105547;1257;61571;-23
2023/04/08 06:48:40;;;;;;;5.70;4.20;;;;;;;6.67;76.48;99419.56;105575;1257;74531;-24
2023/04/08 06:51:08;;;;;;;7.20;4.80;;;;;;;7.29;75.48;99414.10;105481;1257;75791;-24
2023/04/08 06:53:39;;;;;;;7.70;5.40;;;;;;;7.94;73.37;99409.57;105542;1257;74051;-24
2023/04/08 06:56:07;;;;;;;10.70;7.30;;;;;;;7.95;72.37;99410.50;105567;1257;61927;-24
2023/04/08 06:58:38;;;;;;;11.70;7.80;;;;;;;7.69;71.64;99406.65;105599;1257;61092;-24
2023/04/08 07:01:07;;;;;;;9.70;6.70;;;;;;;7.52;72.73;99408.71;105346;1257;74695;-24
2023/04/08 07:03:36;;;;;;;11.50;8.50;;;;;;;7.34;72.74;99409.87;105421;1260;75950;-24
2023/04/08 07:06:05;;;;;;;9.70;7.40;;;;;;;7.26;73.68;99409.12;105581;1257;73995;-24
2023/04/08 07:08:35;;;;;;;9.10;6.60;;;;;;;7.24;73.79;99413.02;105438;1257;61995;-24
2023/04/08 07:11:07;;;;;;;10.10;6.90;;;;;;;7.16;73.68;99415.94;105252;1258;61418;-24
2023/04/08 07:13:37;;;;;;;9.00;6.70;;;;;;;7.13;74.43;99417.52;105453;1259;73571;-24
2023/04/08 07:16:06;;;;;;;9.80;5.80;;;;;;;7.08;75.21;99419.36;105390;1258;75898;-23
2023/04/08 07:18:36;;;;;;;7.70;5.70;;;;;;;7.56;75.02;99416.95;105403;1261;73857;-24
2023/04/08 07:21:05;;;;;;;11.80;7.20;;;;;;;8.06;73.33;99416.41;105496;1258;61056;-24
2023/04/08 07:23:34;;;;;;;12.40;8.20;;;;;;;8.16;71.25;99416.61;105562;1257;61633;-24
2023/04/08 07:26:06;;;;;;;13.70;9.70;;;;;;;8.25;71.29;99416.55;105539;1260;73495;-24
2023/04/08 07:28:41;;;;;;;11.90;8.90;;;;;;;8.14;71.99;99419.88;105489;1258;74384;-23
2023/04/08 07:31:15;;;;;;;13.70;10.30;;;;;;;8.14;71.05;99419.36;105461;1257;73979;-23
2023/04/08 07:33:44;;;;;;;19.00;11.30;;;;;;;8.05;73.33;99418.52;105293;1257;61582;-24
2023/04/08 07:36:17;;;;;;;16.80;10.50;;;;;;;7.87;72.47;99419.11;105520;1260;61615;-23
2023/04/08 07:38:46;;;;;;;24.20;13.90;;;;;;;7.85;73.48;99417.36;105548;1259;73762;-24
2023/04/08 07:41:18;;;;;;;23.70;15.20;;;;;;;7.79;72.75;99421.58;105727;1254;75811;-23
2023/04/08 07:43:46;;;;;;;9.70;6.30;;;;;;;7.90;73.24;99424.14;105713;1256;73333;-23
2023/04/08 07:46:15;;;;;;;16.40;9.70;;;;;;;8.57;72.25;99421.16;105650;1254;62077;-24
2023/04/08 07:48:43;;;;;;;11.20;7.80;;;;;;;9.28;70.08;99423.14;105728;1253;61077;-24
2023/04/08 07:51:12;;;;;;;9.20;7.10;;;;;;;9.60;68.31;99417.11;105668;1253;74536;-24
2023/04/08 07:53:41;;;;;;;9.10;7.00;;;;;;;9.54;68.31;99417.35;105669;1253;76006;-24
2023/04/08 07:56:11;;;;;;;14.00;9.30;;;;;;;9.37;67.65;99411.63;105700;1254;74218;-23
2023/04/08 07:58:40;;;;;;;14.80;10.60;;;;;;;9.00;69.95;99414.66;105645;1254;61989;-24
2023/04/08 08:01:19;;;;;;;13.50;8.80;;;;;;;8.64;71.24;99417.61;105730;1254;61815;-24
2023/04/08 08:03:50;;;;;;;10.30;7.60;;;;;;;8.57;71.49;99422.05;105721;1253;74524;-23
2023/04/08 08:06:20;;;;;;;11.10;8.10;;;;;;;8.61;70.94;99418.00;105610;1258;75746;-23
2023/04/08 08:08:51;;;;;;;11.30;8.30;;;;;;;8.50;72.43;99420.95;105507;1260;73830;-23
2023/04/08 08:11:21;;;;;;;12.70;9.30;;;;;;;8.52;72.26;99418.22;105689;1253;61909;-24
2023/04/08 08:13:52;;;;;;;11.40;7.80;;;;;;;8.63;71.01;99421.14;105691;1256;61716;-23
2023/04/08 08:16:27;;;;;;;12.10;8.50;;;;;;;8.66;71.00;99423.71;105675;1253;74680;-24
2023/04/08 08:18:57;;;;;;;7.50;5.30;;;;;;;8.62;70.79;99423.80;105676;1254;75838;-24
2023/04/08 08:21:32;;;;;;;7.70;5.80;;;;;;;9.19;71.72;99420.40;105657;1253;74023;-23
2023/04/08 08:24:01;;;;;;;10.40;7.20;;;;;;;9.88;69.72;99422.69;105700;1253;61655;-24
2023/04/08 08:26:29;;;;;;;11.10;7.80;;;;;;;9.90;67.97;99418.72;105704;1257;61268;-24
2023/04/08 08:29:00;;;;;;;13.00;9.40;;;;;;;9.75;68.29;99425.52;105671;1253;74608;-23
2023/04/08 08:31:29;;;;;;;13.50;9.70;;;;;;;9.51;68.60;99424.81;105691;1256;75581;-23
2023/04/08 08:33:58;;;;;;;14.50;9.40;;;;;;;9.35;69.09;99425.75;105702;1253;74689;-23
2023/04/08 08:36:27;;;;;;;13.30;10.10;;;;;;;9.20;69.80;99422.15;105663;1253;61843;-24
2023/04/08 08:38:56;;;;;;;17.40;12.30;;;;;;;9.01;70.80;99424.30;105547;1253;61114;-23
2023/04/08 08:41:24;;;;;;;21.00;15.10;;;;;;;8.80;70.55;99420.68;105682;1253;74574;-24
2023/04/08 08:43:53;;;;;;;18.80;12.20;;;;;;;8.54;72.92;99422.25;105687;1257;75749;-24
2023/04/08 08:46:21;;;;;;;15.20;11.00;;;;;;;8.37;74.01;99418.02;105674;1253;74230;-24
2023/04/08 08:48:50;;;;;;;10.40;7.30;;;;;;;8.27;74.59;99422.30;105690;1253;62293;-24
2023/04/08 08:51:18;;;;;;;15.40;8.20;;;;;;;8.77;74.10;99422.11;105534;1257;61818;-23
2023/04/08 08:53:49;;;;;;;12.30;8.30;;;;;;;9.30;72.24;99423.02;105635;1255;73712;-22
2023/04/08 08:56:20;;;;;;;11.50;8.10;;;;;;;9.34;71.02;99424.60;105714;1256;75765;-23
2023/04/08 08:58:50;;;;;;;12.30;8.50;;;;;;;9.12;71.47;99422.89;105706;1256;73547;-25
2023/04/08 09:01:36;;;;;;;13.00;8.40;;;;;;;8.92;72.39;99424.55;105685;1253;61706;-25
2023/04/08 09:04:25;;;;;;;10.70;7.60;;;;;;;8.75;73.43;99422.95;105571;1254;61941;-25
2023/04/08 09:07:12;;;;;;;9.90;6.30;;;;;;;8.43;74.66;99423.85;105537;1253;74260;-25
2023/04/08 09:09:50;;;;;;;10.00;6.80;;;;;;;8.16;76.10;99426.42;105581;1255;74560;-26
2023/04/08 09:12:22;;;;;;;6.20;4.40;;;;;;;8.03;77.07;99426.42;105493;1253;74383;-26
2023/04/08 09:14:51;;;;;;;5.50;4.60;;;;;;;8.54;76.49;99429.02;105556;1260;61916;-24
2023/04/08 09:17:42;;;;;;;7.00;5.60;;;;;;;8.93;74.29;99431.23;105483;1260;61670;-25
2023/04/08 09:20:13;;;;;;;6.30;5.60;;;;;;;8.92;75.25;99428.70;105758;1254;74030;-24
2023/04/08 09:23:01;;;;;;;9.70;6.70;;;;;;;8.85;75.05;99431.48;105661;1256;75800;-24
2023/04/08 09:25:31;;;;;;;8.00;6.10;;;;;;;8.69;75.01;99430.94;105492;1254;74516;-23
2023/04/08 09:28:01;;;;;;;8.80;6.60;;;;;;;8.56;75.43;99429.90;105447;1253;61245;-23
2023/04/08 09:30:31;;;;;;;8.50;6.50;;;;;;;8.42;77.05;99431.69;105536;1253;61210;-23
2023/04/08 09:33:06;;;;;;;7.00;4.50;;;;;;;8.26;77.02;99424.06;105452;1253;75356;-23
2023/04/08 09:35:35;;;;;;;6.80;4.80;;;;;;;8.72;75.98;99432.96;105652;1253;75937;-24
2023/04/08 09:38:04;;;;;;;10.20;6.70;;;;;;;9.21;74.42;99429.33;105682;1253;74170;-24
2023/04/08 09:40:37;;;;;;;8.10;6.40;;;;;;;9.26;74.32;99431.62;105689;1255;61197;-24
2023/04/08 09:43:06;;;;;;;7.00;5.30;;;;;;;9.06;75.85;99434.35;105664;1254;61520;-24
2023/04/08 09:45:34;;;;;;;8.90;6.50;;;;;;;8.79;75.78;99432.40;105658;1253;75864;-23
2023/04/08 09:48:11;;;;;;;9.30;6.10;;;;;;;8.69;76.83;99430.96;105663;1254;75824;-24
2023/04/08 09:50:46;;;;;;;8.30;5.60;;;;;;;8.59;77.14;99438.52;105609;1253;74244;-23
2023/04/08 09:53:31;;;;;;;6.50;4.50;;;;;;;8.39;77.90;99441.54;105595;1254;63432;-24
2023/04/08 09:55:59;;;;;;;6.50;4.70;;;;;;;8.70;76.32;99441.45;105475;1260;61687;-24
2023/04/08 09:59:02;;;;;;;6.20;4.50;;;;;;;8.95;75.37;99443.92;105693;1255;75311;-24
2023/04/08 10:01:38;;;;;;;4.80;4.20;;;;;;;8.94;75.04;99446.63;105679;1253;75754;-24
2023/04/08 10:04:09;;;;;;;5.80;4.30;;;;;;;8.81;74.90;99444.86;105676;1258;72907;-24
2023/04/08 10:06:44;;;;;;;5.20;4.30;;;;;;;8.67;75.79;99441.96;105514;1253;61896;-24
2023/04/08 10:09:13;;;;;;;7.30;5.20;;;;;;;8.60;76.21;99446.27;105674;1257;61714;-23
2023/04/08 10:11:41;;;;;;;4.70;3.20;;;;;;;8.56;77.82;99444.49;105563;1258;75302;-23
2023/04/08 10:14:10;;;;;;;5.20;3.00;;;;;;;9.02;76.38;99446.52;105682;1253;75853;-24
2023/04/08 10:16:38;;;;;;;5.30;4.20;;;;;;;9.57;75.38;99447.27;105687;1253;73256;-24
2023/04/08 10:19:35;;;;;;;7.00;4.30;;;;;;;9.64;74.30;99448.02;105681;1254;61099;-23
2023/04/08 10:22:23;;;;;;;6.30;4.40;;;;;;;9.48;74.36;99448.09;105521;1253;61060;-23
2023/04/08 10:25:14;;;;;;;6.30;4.80;;;;;;;9.22;74.52;99445.55;105648;1253;75142;-23
2023/04/08 10:27:43;;;;;;;7.80;5.20;;;;;;;9.00;75.82;99444.83;105695;1253;75848;-23
2023/04/08 10:30:25;;;;;;;5.60;5.00;;;;;;;8.84;76.17;99446.77;105654;1253;73516;-23
2023/04/08 10:32:58;;;;;;;6.80;5.30;;;;;;;8.67;77.11;99444.96;105611;1258;61148;-24
2023/04/08 10:35:29;;;;;;;3.60;3.00;;;;;;;8.58;78.44;99444.30;105544;1253;61056;-23
2023/04/08 10:37:58;;;;;;;5.30;3.30;;;;;;;9.20;77.79;99446.38;105614;1253;74191;-23
2023/04/08 10:40:27;;;;;;;5.70;4.50;;;;;;;9.75;74.20;99443.90;105637;1253;76149;-23
2023/04/08 10:42:56;;;;;;;6.00;4.90;;;;;;;9.81;74.10;99444.18;105653;1257;74303;-23
2023/04/08 10:45:25;;;;;;;4.80;4.20;;;;;;;9.72;74.83;99442.94;105618;1253;61276;-23
2023/04/08 10:47:54;;;;;;;6.30;4.80;;;;;;;9.59;75.02;99438.62;105433;1253;61177;-23
2023/04/08 10:50:23;;;;;;;9.30;5.30;;;;;;;9.49;75.42;99442.98;105504;1253;75465;-23
2023/04/08 10:52:54;;;;;;;7.00;5.30;;;;;;;9.34;75.22;99438.48;105591;1258;75683;-23
2023/04/08 10:55:25;;;;;;;5.90;5.30;;;;;;;8.92;77.52;99439.27;105555;1253;74196;-23
2023/04/08 10:57:53;;;;;;;4.20;3.30;;;;;;;8.75;79.15;99439.75;105362;1258;62256;-23
2023/04/08 11:00:36;;;;;;;5.70;4.30;;;;;;;9.14;77.41;99438.83;105563;1257;61886;-23
2023/04/08 11:03:08;;;;;;;7.20;5.10;;;;;;;9.46;76.07;99433.00;105647;1260;75414;-23
2023/04/08 11:05:38;;;;;;;5.70;4.80;;;;;;;9.31;76.59;99429.98;105712;1253;75555;-23
2023/04/08 11:08:09;;;;;;;7.50;5.90;;;;;;;9.18;77.92;99429.52;105651;1254;73158;-23
2023/04/08 11:10:37;;;;;;;7.30;5.40;;;;;;;9.00;78.18;99427.52;105718;1253;61729;-23
2023/04/08 11:13:08;;;;;;;6.30;5.30;;;;;;;8.92;79.04;99422.69;105711;1253;61541;-24
2023/04/08 11:15:40;;;;;;;5.30;3.70;;;;;;;8.75;80.44;99421.88;105726;1254;75338;-24
2023/04/08 11:18:09;;;;;;;4.20;3.50;;;;;;;9.16;79.72;99418.94;105633;1253;75182;-24
2023/04/08 11:20:43;;;;;;;5.40;4.40;;;;;;;9.49;79.57;99420.66;105602;1253;73911;-24
2023/04/08 11:23:14;;;;;;;7.20;5.20;;;;;;;9.49;78.68;99418.91;105480;1256;62360;-24
2023/04/08 11:25:43;;;;;;;6.60;5.40;;;;;;;9.34;78.46;99415.59;105691;1254;61630;-23
2023/04/08 11:28:12;;;;;;;5.90;5.10;;;;;;;9.21;79.73;99414.98;105675;1255;75326;-23
2023/04/08 11:30:41;;;;;;;6.20;4.80;;;;;;;8.94;80.37;99411.06;105715;1258;75761;-23
2023/04/08 11:33:11;;;;;;;6.70;5.10;;;;;;;8.62;80.49;99412.04;105753;1253;74129;-23
2023/04/08 11:35:41;;;;;;;4.90;3.80;;;;;;;8.60;82.13;99413.73;105667;1253;63537;-23
2023/04/08 11:38:10;;;;;;;7.70;4.60;;;;;;;9.01;81.41;99416.86;105676;1260;62269;-23
2023/04/08 11:40:40;;;;;;;6.60;5.30;;;;;;;9.47;79.90;99414.16;105705;1258;75289;-23
2023/04/08 11:43:09;;;;;;;6.50;5.30;;;;;;;9.60;79.24;99411.91;105671;1260;75825;-23
2023/04/08 11:45:39;;;;;;;9.60;6.80;;;;;;;9.36;80.34;99411.67;105642;1254;74159;-23
2023/04/08 11:48:11;;;;;;;7.70;5.60;;;;;;;9.18;80.96;99405.09;105367;1253;61958;-23
2023/04/08 11:50:40;;;;;;;7.00;5.10;;;;;;;8.91;81.00;99402.47;105272;1260;61799;-23
2023/04/08 11:53:24;;;;;;;4.10;3.00;;;;;;;8.90;83.01;99399.94;105635;1258;74065;-23